Airfield :
LOGIN :

Register | Disclaimer

   EN    FR    IT 

 










Legend :    VFR   Marginal VFR   IFR   Intensive IFR   Very Intensive IFR
Visi :
Ceiling :
>= 8 km
>= 3000ft
5 to 8 km
1000 to 3000 ft
1500m to 5 km
500 to 1000 ft
800 to 1500m
200 to 500 ft
< 800m
< 200 ft
Symbols :   Thunderstorms  Fog  Heavy snow  Heavy precipitations  Wind > 20 kt
SIGMETs :     Misc.  Thunderstorms  Icing  Turbulence  Mountain Waves  Volcanic Ashes






- Airport Elevation : 102 ft
- IATA code : KEL


EDHK - Holtenau

CURRENT METAR :
  • 261520Z 08007KT 8000 -RA FEW010 17/16 Q1016

EXPIRED METARs :
  • 261450Z 07008KT 050V110 9999 -RA FEW010 17/15 Q1016
  • 261420Z 07006KT 9999 VCTS FEW015CB 18/15 Q1017
  • 261350Z 05007KT 9999 FEW016 18/14 Q1017
  • 261320Z 06008KT 9999 FEW016 20/16 Q1017
  • 261250Z 06009KT 030V090 9999 FEW020 19/14 Q1017
  • 261220Z 06010KT CAVOK 19/14 Q1017
  • 261150Z 05009KT 020V080 CAVOK 19/15 Q1018
  • 261120Z 05008KT 020V090 CAVOK 19/15 Q1018
  • 261050Z 08003KT 340V120 CAVOK 20/14 Q1018
  • 261020Z 10004KT 060V120 CAVOK 20/15 Q1018

TAF TAF EDHK
Valid from the 26 at 15:00 until the 26 at 19:00 UTC


261400Z 2615/2619 07006KT 9999 FEW020
TEMPO 2615/2619 SHRA BKN020CB
PROB40
TEMPO 2615/2619 4000 TSRAGR BKN012 BKN015CB



MET'MAP, your aeronautical weather chart ! - Copyright ORBIFLY December 2007 - Disclaimer

ORBIFLY MET'MAP TEAM :

Programming & Development : Alexandra Zaïnal
Original concept : Baudouin d'Aumeries
Technical & hardware support : Manuel Goepfert
Assistance : Marc-Olivier Méhu




SOURCES & CREDITS :

   NOAA